Time;durP1;ratioP1;P1;durP2;ratioP2;P2;SDS_P1;SDS_P2;PMS_P1;PMS_P2;Temp;Humidity;BMP_temperature;BMP_pressure;BME280_temperature;BME280_humidity;BME280_pressure;Samples;Min_cycle;Max_cycle;Signal;HPM_P1;HPM_P2
2022/06/26 00:01:17;;;;;;;9.87;9.00;;;;;;;19.90;77.17;99941.19;5097936;28;21932;-60
2022/06/26 00:03:44;;;;;;;10.50;9.60;;;;;;;19.82;77.36;99938.69;5099260;28;20524;-60
2022/06/26 00:06:11;;;;;;;9.97;9.07;;;;;;;19.69;77.61;99938.69;5097547;27;20471;-59
2022/06/26 00:08:38;;;;;;;10.40;9.20;;;;;;;19.66;78.34;99930.94;5099107;28;20450;-60
2022/06/26 00:11:06;;;;;;;9.90;9.10;;;;;;;19.70;77.84;99937.63;5097785;28;20481;-59
2022/06/26 00:13:32;;;;;;;10.13;9.17;;;;;;;19.68;78.01;99939.72;5099199;28;21000;-59
2022/06/26 00:15:59;;;;;;;10.33;9.43;;;;;;;19.66;78.14;99939.91;5091092;27;20594;-59
2022/06/26 00:18:26;;;;;;;10.30;9.40;;;;;;;19.61;78.40;99930.75;5059260;28;20429;-58
2022/06/26 00:20:52;;;;;;;10.20;9.30;;;;;;;19.55;78.14;99937.84;5085503;27;20493;-58
2022/06/26 00:23:19;;;;;;;12.83;8.83;;;;;;;19.51;78.01;99925.72;5099065;28;20479;-59
2022/06/26 00:25:46;;;;;;;10.37;9.57;;;;;;;19.48;78.03;99935.09;5096973;27;20462;-59
2022/06/26 00:28:14;;;;;;;10.13;8.50;;;;;;;19.46;77.95;99920.06;5099712;28;20701;-60
2022/06/26 00:30:41;;;;;;;9.53;8.67;;;;;;;19.44;77.59;99933.81;5101740;28;20477;-61
2022/06/26 00:33:07;;;;;;;9.73;8.87;;;;;;;19.41;78.06;99925.28;5102760;28;20450;-61
2022/06/26 00:35:34;;;;;;;10.20;9.20;;;;;;;19.40;78.40;99929.03;5101874;27;20523;-60
2022/06/26 00:38:01;;;;;;;11.63;9.83;;;;;;;19.40;78.52;99923.63;5102633;28;20497;-60
2022/06/26 00:40:27;;;;;;;9.40;8.60;;;;;;;19.39;78.40;99930.94;5100912;28;20486;-60
2022/06/26 00:42:54;;;;;;;9.90;8.90;;;;;;;19.31;78.63;99925.69;5102187;28;20454;-59
2022/06/26 00:45:22;;;;;;;10.23;9.23;;;;;;;19.52;78.53;99930.94;5101287;28;20442;-61
2022/06/26 00:47:49;;;;;;;10.70;9.60;;;;;;;19.47;78.78;99930.72;5102556;28;20450;-59
2022/06/26 00:50:15;;;;;;;12.87;9.60;;;;;;;19.42;79.43;99926.97;5101756;27;20511;-60
2022/06/26 00:52:42;;;;;;;10.60;9.50;;;;;;;19.47;79.08;99930.72;5102102;28;20451;-59
2022/06/26 00:55:10;;;;;;;9.90;9.00;;;;;;;19.41;78.65;99928.00;5101534;27;20474;-60
2022/06/26 00:57:38;;;;;;;11.27;10.27;;;;;;;19.41;77.57;99928.00;5082670;28;20472;-60
2022/06/26 01:00:05;;;;;;;11.63;9.43;;;;;;;19.35;77.42;99921.53;5082663;28;21078;-59
2022/06/26 01:02:33;;;;;;;10.70;9.60;;;;;;;19.32;77.41;99932.78;5081525;28;20535;-60
2022/06/26 01:05:00;;;;;;;9.60;8.73;;;;;;;19.22;77.07;99925.06;5081769;28;20468;-60
2022/06/26 01:07:27;;;;;;;9.00;8.30;;;;;;;19.15;76.54;99921.50;5100651;27;20481;-60
2022/06/26 01:09:53;;;;;;;10.60;8.73;;;;;;;19.14;76.02;99919.81;5101381;28;21015;-60
2022/06/26 01:12:21;;;;;;;10.27;8.60;;;;;;;19.07;76.42;99921.69;5101533;27;20947;-60
2022/06/26 01:14:48;;;;;;;10.23;9.23;;;;;;;19.00;76.22;99917.06;5102050;28;20451;-60
2022/06/26 01:17:14;;;;;;;9.10;8.23;;;;;;;18.98;75.89;99915.63;5101128;28;20502;-60
2022/06/26 01:19:43;;;;;;;9.00;8.20;;;;;;;18.95;76.38;99921.44;5102435;28;20482;-60
2022/06/26 01:22:09;;;;;;;9.50;8.70;;;;;;;18.97;75.94;99928.34;5101325;28;20551;-60
2022/06/26 01:24:37;;;;;;;10.10;9.20;;;;;;;18.92;76.50;99928.09;5101638;28;20469;-60
2022/06/26 01:27:05;;;;;;;9.37;8.57;;;;;;;18.89;76.83;99930.38;5100830;28;20471;-60
2022/06/26 01:29:32;;;;;;;9.97;9.10;;;;;;;18.85;76.38;99927.22;5102045;28;20506;-60
2022/06/26 01:31:58;;;;;;;9.00;8.10;;;;;;;18.87;75.53;99929.72;5101185;28;20543;-60
2022/06/26 01:34:25;;;;;;;9.03;8.23;;;;;;;18.84;75.71;99924.75;5101730;28;20537;-60
2022/06/26 01:36:52;;;;;;;8.90;8.00;;;;;;;18.83;76.05;99923.88;5100804;28;20506;-60
2022/06/26 01:39:19;;;;;;;8.90;8.20;;;;;;;18.75;76.23;99932.19;5100920;28;20477;-60
2022/06/26 01:41:47;;;;;;;9.10;7.93;;;;;;;18.73;76.18;99929.66;5099380;27;20527;-61
2022/06/26 01:44:14;;;;;;;9.87;8.87;;;;;;;18.73;76.06;99931.50;5101688;28;20431;-61
2022/06/26 01:46:40;;;;;;;9.53;8.73;;;;;;;18.66;76.25;99931.47;5099389;28;20504;-61
2022/06/26 01:49:07;;;;;;;10.07;9.10;;;;;;;18.57;76.46;99924.56;5101689;28;20463;-61
2022/06/26 01:51:34;;;;;;;9.33;8.30;;;;;;;18.60;76.58;99924.19;5089348;27;20535;-61
2022/06/26 01:54:01;;;;;;;9.80;9.00;;;;;;;18.53;76.26;99926.03;5100207;28;21006;-60
2022/06/26 01:56:27;;;;;;;12.30;8.67;;;;;;;18.50;75.74;99931.84;5088978;27;20510;-60
2022/06/26 01:58:55;;;;;;;8.10;7.40;;;;;;;18.40;76.17;99932.19;5081671;28;20471;-60
2022/06/26 02:01:22;;;;;;;9.63;8.67;;;;;;;18.50;75.73;99927.25;5092008;28;20537;-60
2022/06/26 02:03:49;;;;;;;8.90;8.07;;;;;;;18.54;75.25;99933.09;5100785;28;20442;-62
2022/06/26 02:06:15;;;;;;;9.10;7.97;;;;;;;18.55;75.03;99932.91;5100333;28;20483;-61
2022/06/26 02:08:42;;;;;;;9.00;8.10;;;;;;;18.63;74.45;99930.03;5101369;28;20435;-61
2022/06/26 02:13:54;;;;;;;8.00;7.30;;;;;;;18.62;74.43;99933.75;5100745;28;20505;-62
2022/06/26 02:16:23;;;;;;;8.50;7.70;;;;;;;18.73;73.84;99928.81;5099500;28;20689;-60
2022/06/26 02:18:51;;;;;;;8.60;7.10;;;;;;;18.59;74.71;99926.06;5101245;28;20510;-60
2022/06/26 02:21:21;;;;;;;13.73;7.70;;;;;;;18.52;75.11;99921.63;5099663;28;20606;-60
2022/06/26 02:23:50;;;;;;;9.07;8.20;;;;;;;18.52;75.36;99927.91;5100597;28;20470;-60
2022/06/26 02:26:17;;;;;;;8.83;8.00;;;;;;;18.57;74.81;99927.28;5099732;28;21012;-59
2022/06/26 02:28:45;;;;;;;7.93;7.13;;;;;;;18.58;74.93;99924.38;5101387;28;20446;-59
2022/06/26 02:31:13;;;;;;;8.83;8.13;;;;;;;18.55;74.48;99927.47;5100058;28;20523;-61
2022/06/26 02:33:40;;;;;;;9.20;6.60;;;;;;;18.54;74.61;99920.41;5100748;28;20459;-61
2022/06/26 02:36:08;;;;;;;10.10;7.07;;;;;;;18.52;74.73;99927.03;5091118;28;21299;-60
2022/06/26 02:38:35;;;;;;;7.93;7.23;;;;;;;18.51;75.15;99925.41;5100609;28;20479;-61
2022/06/26 02:41:02;;;;;;;6.90;6.30;;;;;;;18.52;75.09;99927.91;5098758;28;20471;-60
2022/06/26 02:43:29;;;;;;;8.00;7.10;;;;;;;18.28;75.47;99939.19;5100239;28;20459;-60
2022/06/26 02:45:56;;;;;;;9.20;7.63;;;;;;;17.92;77.30;99972.66;5098600;27;20598;-60
2022/06/26 02:48:25;;;;;;;8.03;7.27;;;;;;;18.08;76.88;99976.94;5100482;28;20435;-60
2022/06/26 02:50:51;;;;;;;8.43;7.67;;;;;;;18.33;75.36;99972.78;5098837;28;20498;-60
2022/06/26 02:53:18;;;;;;;9.47;7.27;;;;;;;18.44;75.02;99974.91;5099760;28;20470;-60
2022/06/26 02:55:45;;;;;;;7.97;7.00;;;;;;;18.52;74.87;99971.22;5098698;28;20483;-60
2022/06/26 02:58:12;;;;;;;8.40;7.30;;;;;;;18.64;73.95;99963.34;5100038;28;20478;-60
2022/06/26 03:00:39;;;;;;;7.63;6.83;;;;;;;18.77;73.31;99973.44;5095599;27;20491;-60
2022/06/26 03:03:06;;;;;;;8.37;7.57;;;;;;;18.77;73.19;99966.13;5079470;28;20530;-60
2022/06/26 03:05:34;;;;;;;6.80;6.20;;;;;;;18.78;73.51;99970.53;5081197;27;20490;-60
2022/06/26 03:08:00;;;;;;;7.37;6.77;;;;;;;18.77;74.11;99987.78;5079733;28;20463;-60
2022/06/26 03:10:27;;;;;;;8.30;6.90;;;;;;;18.78;74.12;99994.03;5082864;28;20871;-60
2022/06/26 03:12:54;;;;;;;7.80;7.03;;;;;;;18.78;74.40;99986.78;5079683;28;20448;-60
2022/06/26 03:15:20;;;;;;;7.53;6.73;;;;;;;18.76;74.26;99983.41;5079237;28;20933;-60
2022/06/26 03:17:47;;;;;;;7.33;6.73;;;;;;;18.80;74.45;99979.28;5079695;28;20506;-60
2022/06/26 03:20:16;;;;;;;9.23;7.60;;;;;;;18.83;73.96;99988.88;5079476;28;20472;-60
2022/06/26 03:22:44;;;;;;;8.73;7.83;;;;;;;18.96;73.25;99977.28;5099705;28;20482;-60
2022/06/26 03:25:11;;;;;;;8.10;6.83;;;;;;;18.98;73.81;99988.75;5098543;28;20450;-60
2022/06/26 03:27:38;;;;;;;7.37;6.67;;;;;;;18.97;74.44;99984.38;5100462;28;20431;-60
2022/06/26 03:30:05;;;;;;;7.90;7.20;;;;;;;19.09;74.18;99984.63;5099870;28;20442;-61
2022/06/26 03:32:32;;;;;;;7.93;6.87;;;;;;;19.11;73.74;99990.69;5098890;28;20948;-61
2022/06/26 03:34:59;;;;;;;7.50;6.90;;;;;;;19.31;73.02;99985.34;5099293;28;20483;-61
2022/06/26 03:37:25;;;;;;;8.60;7.23;;;;;;;19.47;72.77;100003.09;5080070;28;20483;-61
2022/06/26 03:39:54;;;;;;;8.10;7.40;;;;;;;19.87;72.05;100003.19;5079150;28;20473;-61
2022/06/26 03:42:20;;;;;;;7.90;7.20;;;;;;;20.74;68.26;100003.94;5097070;27;20478;-61
2022/06/26 03:44:47;;;;;;;7.63;6.80;;;;;;;21.09;64.97;100005.50;5099645;28;20514;-59
2022/06/26 03:47:13;;;;;;;12.00;7.30;;;;;;;20.78;65.26;99999.78;5097616;28;20475;-59
2022/06/26 03:49:40;;;;;;;7.80;6.70;;;;;;;21.09;65.23;99997.34;5099580;28;20463;-60
2022/06/26 03:52:07;;;;;;;7.90;7.20;;;;;;;22.34;61.95;99996.75;5091495;27;20573;-60
2022/06/26 03:54:35;;;;;;;7.63;6.00;;;;;;;22.19;61.07;99997.91;5079371;28;20448;-60
2022/06/26 03:57:03;;;;;;;6.37;5.83;;;;;;;22.89;59.73;100006.84;5094904;27;20585;-60
2022/06/26 03:59:30;;;;;;;6.90;6.20;;;;;;;25.06;53.40;100016.72;5099297;28;20500;-61
2022/06/26 04:01:57;;;;;;;7.23;6.43;;;;;;;25.38;50.81;100017.13;5098422;28;20584;-61
2022/06/26 04:04:23;;;;;;;8.87;4.80;;;;;;;27.12;47.97;100018.25;5103447;28;20458;-60
2022/06/26 04:06:51;;;;;;;7.83;5.20;;;;;;;26.43;47.27;100006.59;5102957;28;20535;-61
2022/06/26 04:09:17;;;;;;;5.40;4.90;;;;;;;27.10;45.84;100014.91;5103560;28;20431;-60
2022/06/26 04:11:44;;;;;;;5.20;4.70;;;;;;;27.49;42.86;100012.91;5101973;27;20553;-60
2022/06/26 04:14:12;;;;;;;5.10;4.60;;;;;;;28.62;40.69;100013.88;5103211;28;20466;-60
2022/06/26 04:16:39;;;;;;;5.50;5.00;;;;;;;28.17;41.71;100021.53;5101567;28;20609;-60
2022/06/26 04:19:06;;;;;;;6.80;4.17;;;;;;;27.83;43.20;100014.59;5103781;28;20457;-60
2022/06/26 04:21:32;;;;;;;7.40;4.30;;;;;;;26.79;44.44;100014.53;5102736;28;20482;-61
2022/06/26 04:23:59;;;;;;;5.63;4.70;;;;;;;26.16;46.61;100016.56;5103418;28;20470;-60
2022/06/26 04:26:25;;;;;;;4.87;4.47;;;;;;;25.84;47.15;100009.72;5102242;28;20499;-60
2022/06/26 04:28:52;;;;;;;5.30;4.80;;;;;;;25.03;49.96;100014.44;5103896;28;20467;-60
2022/06/26 04:31:20;;;;;;;7.07;5.53;;;;;;;24.62;50.14;100007.03;5099282;27;20479;-61
2022/06/26 04:33:47;;;;;;;5.90;5.40;;;;;;;24.08;51.98;100008.19;5098524;28;20464;-60
2022/06/26 04:36:13;;;;;;;5.80;5.30;;;;;;;24.33;52.11;100002.50;5087892;28;20483;-60
2022/06/26 04:38:40;;;;;;;5.20;4.80;;;;;;;24.60;51.80;100009.19;5083070;28;20503;-60
2022/06/26 04:43:47;;;;;;;6.23;5.60;;;;;;;26.10;46.99;100001.97;5103143;28;20938;-60
2022/06/26 04:46:14;;;;;;;7.23;6.27;;;;;;;26.35;46.65;100022.63;5081065;28;20474;-59
2022/06/26 04:48:42;;;;;;;7.27;6.03;;;;;;;26.26;46.53;100023.03;5082526;28;20464;-60
2022/06/26 04:51:08;;;;;;;7.40;5.97;;;;;;;25.68;48.14;100027.78;5090454;28;20473;-60
2022/06/26 04:53:37;;;;;;;7.10;5.47;;;;;;;24.73;50.78;100038.16;5102419;28;20447;-60
2022/06/26 04:56:04;;;;;;;9.00;6.50;;;;;;;24.08;53.13;100040.94;5101197;28;20506;-60
2022/06/26 04:58:31;;;;;;;9.47;6.37;;;;;;;23.91;53.75;100049.84;5102617;28;20463;-59
2022/06/26 05:00:58;;;;;;;8.23;7.53;;;;;;;23.26;55.90;100064.13;5101428;28;20482;-62
2022/06/26 05:03:24;;;;;;;10.03;8.03;;;;;;;24.46;53.43;100072.47;5082088;28;20511;-61
2022/06/26 05:05:52;;;;;;;8.27;7.47;;;;;;;25.42;49.97;100078.50;5087397;28;20470;-60
2022/06/26 05:08:19;;;;;;;8.40;7.70;;;;;;;24.71;51.62;100089.50;5102174;28;20530;-61
2022/06/26 05:10:46;;;;;;;8.67;7.73;;;;;;;24.64;52.46;100077.06;5100309;27;20481;-60
2022/06/26 05:13:12;;;;;;;7.40;6.77;;;;;;;25.04;51.73;100084.50;5102191;28;20715;-60
2022/06/26 05:15:39;;;;;;;8.90;8.00;;;;;;;23.88;54.66;100093.97;5100346;28;20523;-59
2022/06/26 05:18:06;;;;;;;8.70;7.80;;;;;;;23.40;56.37;100089.34;5102283;28;20593;-59
2022/06/26 05:20:32;;;;;;;8.60;7.63;;;;;;;23.09;57.83;100100.19;5101118;28;20477;-60
2022/06/26 05:23:00;;;;;;;8.73;7.93;;;;;;;23.39;57.02;100107.63;5102442;28;20451;-60
2022/06/26 05:25:27;;;;;;;8.40;7.70;;;;;;;23.60;55.94;100094.56;5098388;27;20484;-60
2022/06/26 05:27:54;;;;;;;8.30;7.53;;;;;;;23.53;56.49;100115.66;5082158;28;20432;-59
2022/06/26 05:30:21;;;;;;;8.70;7.77;;;;;;;23.50;56.72;100109.59;5081262;28;20503;-60
2022/06/26 05:32:47;;;;;;;9.30;8.50;;;;;;;22.91;58.22;100120.09;5082258;28;20490;-60
2022/06/26 05:35:14;;;;;;;8.20;7.40;;;;;;;23.77;56.48;100122.88;5082528;28;20543;-59
2022/06/26 05:37:41;;;;;;;7.87;7.23;;;;;;;23.66;56.46;100135.41;5102419;28;20514;-59
2022/06/26 05:40:10;;;;;;;8.40;7.40;;;;;;;23.53;56.96;100130.13;5099743;28;20471;-58
2022/06/26 05:42:37;;;;;;;8.33;7.03;;;;;;;24.01;54.97;100133.94;5101658;28;20458;-60
2022/06/26 05:45:04;;;;;;;8.40;6.57;;;;;;;23.55;56.52;100135.34;5100636;28;20948;-63
2022/06/26 05:47:30;;;;;;;7.90;6.47;;;;;;;23.26;57.28;100129.59;5100294;28;20476;-63
2022/06/26 05:49:57;;;;;;;8.30;7.50;;;;;;;23.30;57.46;100131.63;5102015;28;20462;-64
2022/06/26 05:52:24;;;;;;;8.20;7.50;;;;;;;22.77;59.57;100131.31;5100647;28;20563;-63
2022/06/26 05:54:51;;;;;;;10.90;7.50;;;;;;;22.88;59.83;100120.53;5101305;28;20470;-63
2022/06/26 05:57:20;;;;;;;8.87;7.50;;;;;;;22.88;59.78;100139.63;5100375;28;20485;-64
2022/06/26 05:59:47;;;;;;;8.37;7.57;;;;;;;23.90;56.61;100141.00;5099071;28;20439;-63
2022/06/26 06:02:14;;;;;;;10.10;7.40;;;;;;;24.42;55.38;100141.25;5082755;28;20507;-63
2022/06/26 06:04:40;;;;;;;6.50;5.90;;;;;;;24.72;53.77;100134.09;5098958;28;20475;-62
2022/06/26 06:07:07;;;;;;;7.57;6.60;;;;;;;23.56;57.44;100150.63;5091860;27;20488;-64
2022/06/26 06:09:34;;;;;;;8.23;7.53;;;;;;;23.19;58.83;100158.84;5091113;28;20888;-63
2022/06/26 06:12:01;;;;;;;7.70;7.10;;;;;;;23.61;58.09;100157.09;5096559;28;20475;-64
2022/06/26 06:14:29;;;;;;;8.03;7.33;;;;;;;23.42;58.59;100147.25;5100583;28;20451;-65
2022/06/26 06:16:55;;;;;;;7.67;6.97;;;;;;;23.76;57.86;100147.66;5095025;28;20510;-65
2022/06/26 06:19:22;;;;;;;8.03;7.23;;;;;;;24.68;55.28;100150.13;5080159;28;20471;-65
2022/06/26 06:21:49;;;;;;;8.47;7.60;;;;;;;24.79;54.41;100154.78;5078281;28;20474;-65
2022/06/26 06:24:15;;;;;;;8.33;7.57;;;;;;;24.53;55.44;100153.31;5083850;28;20460;-66
2022/06/26 06:26:42;;;;;;;9.83;8.57;;;;;;;25.73;52.08;100153.03;5092226;28;21253;-66
2022/06/26 06:29:09;;;;;;;7.57;6.77;;;;;;;25.97;51.39;100151.06;5100450;28;20439;-66
2022/06/26 06:31:37;;;;;;;7.43;6.83;;;;;;;26.10;49.77;100158.97;5100543;28;20467;-65
2022/06/26 06:34:03;;;;;;;7.43;6.60;;;;;;;25.40;51.54;100159.16;5100194;28;20489;-66
2022/06/26 06:36:30;;;;;;;8.20;7.40;;;;;;;26.36;49.30;100164.91;5096990;28;20514;-66
2022/06/26 06:38:57;;;;;;;7.20;6.50;;;;;;;27.18;46.97;100170.88;5100819;28;20517;-66
2022/06/26 06:41:23;;;;;;;7.37;6.13;;;;;;;28.23;44.73;100181.00;5095310;28;20514;-65
2022/06/26 06:43:50;;;;;;;6.80;6.13;;;;;;;28.18;44.17;100190.03;5097964;28;20823;-66
2022/06/26 06:46:17;;;;;;;5.90;5.30;;;;;;;27.82;44.76;100195.09;5096520;28;20479;-66
2022/06/26 06:48:45;;;;;;;6.80;6.17;;;;;;;27.86;44.06;100189.91;5100011;28;20443;-66
2022/06/26 06:51:11;;;;;;;6.90;6.17;;;;;;;27.79;44.18;100188.22;5099299;28;20491;-66
2022/06/26 06:53:38;;;;;;;5.63;5.13;;;;;;;28.88;42.35;100176.38;5099450;28;20480;-66
2022/06/26 06:56:05;;;;;;;7.57;5.10;;;;;;;27.79;43.68;100182.72;5093147;28;20479;-66
2022/06/26 06:58:31;;;;;;;5.83;5.37;;;;;;;26.57;47.12;100188.00;5099433;28;20562;-66
2022/06/26 07:00:58;;;;;;;6.20;5.10;;;;;;;27.48;45.25;100180.66;5093593;28;21066;-66
2022/06/26 07:03:25;;;;;;;4.80;4.40;;;;;;;27.38;45.67;100189.59;5069957;28;20480;-65
2022/06/26 07:05:53;;;;;;;5.43;4.93;;;;;;;27.80;44.34;100197.28;5090834;27;20486;-65
2022/06/26 07:08:19;;;;;;;5.27;4.87;;;;;;;27.98;43.84;100194.22;5098740;28;20474;-65
2022/06/26 07:10:46;;;;;;;5.57;5.07;;;;;;;29.04;41.77;100196.56;5098074;27;20672;-65
2022/06/26 07:13:13;;;;;;;5.10;4.50;;;;;;;30.28;39.25;100193.31;5092041;28;20749;-65
2022/06/26 07:15:39;;;;;;;5.63;4.33;;;;;;;28.98;40.97;100201.22;5079665;27;20464;-67
2022/06/26 07:18:06;;;;;;;7.13;4.50;;;;;;;29.67;39.98;100215.97;5077143;28;20501;-65
2022/06/26 07:20:33;;;;;;;3.87;3.57;;;;;;;30.66;38.74;100213.22;5083133;28;20534;-65
2022/06/26 07:23:01;;;;;;;4.50;4.10;;;;;;;32.66;34.35;100203.44;5099696;28;20447;-66
2022/06/26 07:25:29;;;;;;;5.10;3.90;;;;;;;31.43;36.53;100206.81;5098518;28;20482;-65
2022/06/26 07:27:56;;;;;;;4.50;3.80;;;;;;;31.76;35.59;100204.50;5100063;28;20434;-65
2022/06/26 07:30:23;;;;;;;5.17;3.97;;;;;;;30.03;38.55;100202.34;5099059;28;20463;-65
2022/06/26 07:32:49;;;;;;;5.63;3.67;;;;;;;30.31;38.85;100203.78;5099238;28;20518;-65
2022/06/26 07:35:16;;;;;;;5.37;4.70;;;;;;;30.96;36.67;100203.31;5098853;28;20506;-66
2022/06/26 07:37:43;;;;;;;7.40;3.83;;;;;;;28.68;41.79;100207.31;5098786;28;20466;-66
2022/06/26 07:40:11;;;;;;;4.23;3.83;;;;;;;28.06;42.94;100209.41;5079632;27;20471;-65
2022/06/26 07:42:38;;;;;;;4.60;4.07;;;;;;;27.66;43.95;100205.06;5081351;28;20452;-65
2022/06/26 07:45:06;;;;;;;6.67;5.97;;;;;;;26.64;46.44;100210.66;5075233;28;20459;-65
2022/06/26 07:47:32;;;;;;;4.23;3.93;;;;;;;27.61;45.58;100207.75;5076898;28;20485;-65
2022/06/26 07:49:59;;;;;;;7.13;4.03;;;;;;;29.45;40.71;100213.38;5074654;28;20491;-66
2022/06/26 07:52:26;;;;;;;4.93;4.43;;;;;;;28.79;42.13;100217.31;5077535;28;20507;-65
2022/06/26 07:54:52;;;;;;;4.77;4.30;;;;;;;28.06;43.00;100219.59;5080854;28;20532;-65
2022/06/26 07:57:20;;;;;;;4.10;3.33;;;;;;;28.43;42.78;100225.19;5095217;28;20471;-65
2022/06/26 07:59:47;;;;;;;4.13;3.40;;;;;;;28.95;41.63;100221.00;5091934;28;20541;-66
2022/06/26 08:02:14;;;;;;;4.30;3.50;;;;;;;27.47;44.21;100236.66;5096601;28;20475;-65
2022/06/26 08:04:40;;;;;;;3.53;3.20;;;;;;;27.33;44.99;100239.75;5097590;28;20447;-67
2022/06/26 08:07:07;;;;;;;3.87;3.57;;;;;;;26.58;46.56;100250.00;5097918;28;20791;-65
2022/06/26 08:09:34;;;;;;;5.07;3.70;;;;;;;27.66;44.25;100257.25;5097932;28;20451;-66
2022/06/26 08:12:00;;;;;;;3.60;3.33;;;;;;;29.55;40.21;100254.75;5097033;28;20492;-66
2022/06/26 08:14:28;;;;;;;3.77;3.27;;;;;;;30.49;38.34;100256.81;5094436;28;20509;-66
2022/06/26 08:16:55;;;;;;;4.10;3.57;;;;;;;29.04;40.91;100257.13;5097164;28;20538;-66
2022/06/26 08:19:22;;;;;;;3.73;3.03;;;;;;;28.64;42.01;100253.75;5098375;28;20566;-65
2022/06/26 08:22:04;;;;;;;3.90;3.60;;;;;;;26.70;46.72;100269.19;5094074;28;20485;-65
2022/06/26 08:24:31;;;;;;;3.70;3.40;;;;;;;25.60;48.99;100271.00;5098057;28;20450;-65
2022/06/26 08:26:58;;;;;;;4.57;3.23;;;;;;;25.89;48.78;100278.22;5093655;28;20653;-65
2022/06/26 08:29:25;;;;;;;4.37;3.60;;;;;;;25.26;50.06;100266.16;5097302;28;20447;-65
2022/06/26 08:31:53;;;;;;;3.33;3.03;;;;;;;26.66;47.57;100277.06;5096049;28;20479;-65
2022/06/26 08:34:20;;;;;;;5.10;2.97;;;;;;;26.88;46.33;100276.34;5094213;28;20543;-65
2022/06/26 08:36:46;;;;;;;2.97;2.73;;;;;;;26.36;47.43;100281.94;5096213;28;20482;-65
2022/06/26 08:39:13;;;;;;;5.30;3.20;;;;;;;26.24;47.60;100277.31;5089759;28;20498;-65
2022/06/26 08:41:41;;;;;;;3.43;2.80;;;;;;;26.65;46.66;100280.88;5096846;27;20772;-65
2022/06/26 08:44:08;;;;;;;3.53;3.03;;;;;;;26.19;46.93;100276.41;5096118;28;20534;-66
2022/06/26 08:46:40;;;;;;;2.77;2.57;;;;;;;25.90;47.38;100273.56;5097828;28;20525;-65
2022/06/26 08:49:10;;;;;;;2.63;2.43;;;;;;;25.23;49.23;100273.97;5098745;28;20994;-65
2022/06/26 08:51:39;;;;;;;2.40;2.30;;;;;;;25.54;49.08;100284.59;5094302;28;20999;-65
2022/06/26 08:54:06;;;;;;;2.30;2.10;;;;;;;24.88;50.33;100286.53;5098773;28;20490;-65
2022/06/26 08:56:33;;;;;;;2.27;1.83;;;;;;;24.73;50.14;100295.16;5097878;28;20505;-65
2022/06/26 08:59:00;;;;;;;3.43;2.33;;;;;;;24.70;49.41;100290.16;5098665;28;20514;-65
2022/06/26 09:01:27;;;;;;;2.17;1.97;;;;;;;25.00;48.76;100289.28;5101419;28;20513;-65
2022/06/26 09:03:54;;;;;;;2.10;1.90;;;;;;;25.67;48.31;100296.38;5102081;28;20478;-65
2022/06/26 09:06:22;;;;;;;2.30;2.10;;;;;;;26.27;46.64;100292.47;5100979;28;20503;-65
2022/06/26 09:08:50;;;;;;;2.33;1.80;;;;;;;27.98;43.71;100301.41;5099216;28;20458;-65
2022/06/26 09:11:18;;;;;;;2.60;2.40;;;;;;;27.02;44.54;100304.28;5099213;28;20518;-65
2022/06/26 09:13:45;;;;;;;1.73;1.57;;;;;;;27.48;44.07;100312.44;5099026;28;20451;-65
2022/06/26 09:16:13;;;;;;;3.57;1.87;;;;;;;26.12;47.40;100303.94;5097412;28;20463;-61
2022/06/26 09:18:42;;;;;;;2.70;2.50;;;;;;;25.49;48.69;100311.84;5093796;28;21056;-64
2022/06/26 09:21:10;;;;;;;3.30;1.87;;;;;;;26.26;47.10;100308.06;5092860;27;20500;-63
2022/06/26 09:23:39;;;;;;;1.80;1.70;;;;;;;26.71;45.65;100308.41;5093086;28;20451;-64
2022/06/26 09:26:07;;;;;;;2.53;1.67;;;;;;;26.97;45.57;100298.72;5088621;28;20499;-63
2022/06/26 09:28:33;;;;;;;3.43;2.10;;;;;;;27.09;45.06;100302.22;5100534;28;20536;-63
2022/06/26 09:31:02;;;;;;;2.37;1.80;;;;;;;26.94;44.42;100304.69;5099258;28;20499;-64
2022/06/26 09:33:30;;;;;;;2.30;2.10;;;;;;;26.19;46.87;100299.16;5100433;28;20462;-63
2022/06/26 09:35:58;;;;;;;3.97;2.27;;;;;;;26.30;46.31;100306.50;5090042;28;20494;-63
2022/06/26 09:38:26;;;;;;;2.37;2.10;;;;;;;27.05;44.13;100301.06;5081463;28;20529;-63
2022/06/26 09:40:56;;;;;;;3.20;2.90;;;;;;;28.17;41.13;100299.16;5091766;28;20495;-63
2022/06/26 09:43:27;;;;;;;2.10;1.80;;;;;;;29.39;39.65;100310.81;5100339;28;20478;-64
2022/06/26 09:45:55;;;;;;;2.73;2.53;;;;;;;29.61;39.22;100305.19;5099889;28;20844;-63
2022/06/26 09:48:23;;;;;;;2.20;2.00;;;;;;;31.09;36.69;100310.44;5087878;28;20475;-64
2022/06/26 09:50:50;;;;;;;2.47;2.27;;;;;;;30.50;37.49;100306.22;5085666;27;20463;-64
2022/06/26 09:53:17;;;;;;;2.30;2.10;;;;;;;30.15;37.75;100309.63;5101128;28;20458;-64
2022/06/26 09:55:47;;;;;;;2.30;2.07;;;;;;;30.94;37.37;100318.72;5100335;28;20523;-64
2022/06/26 09:58:16;;;;;;;4.30;3.17;;;;;;;29.90;37.41;100322.19;5100200;28;20435;-64
2022/06/26 10:06:25;;;;;;;4.43;4.03;;;;;;;28.05;40.20;100317.69;5100570;28;20519;-63
2022/06/26 10:06:27;;;;;;;5.97;5.47;;;;;;;29.09;38.54;100321.28;5065638;28;20498;-63
2022/06/26 10:08:54;;;;;;;5.10;4.70;;;;;;;30.21;36.65;100317.66;5101398;28;20415;-63
2022/06/26 10:11:23;;;;;;;5.30;4.90;;;;;;;29.03;38.68;100322.34;5099598;28;20475;-64
2022/06/26 10:13:51;;;;;;;6.13;5.63;;;;;;;28.30;40.54;100330.09;5101135;28;20443;-64
2022/06/26 10:16:42;;;;;;;6.00;5.40;;;;;;;28.05;40.74;100328.66;5099580;28;20922;-63
2022/06/26 10:19:21;;;;;;;5.43;5.03;;;;;;;29.93;37.08;100332.69;5100124;28;20467;-63
2022/06/26 10:21:48;;;;;;;5.80;5.40;;;;;;;29.99;36.64;100333.56;5099856;27;20478;-63
2022/06/26 10:24:15;;;;;;;6.37;5.93;;;;;;;29.98;36.56;100332.72;5100104;28;20447;-63
2022/06/26 10:26:51;;;;;;;6.63;6.03;;;;;;;28.62;39.18;100332.13;5098591;27;20475;-64
2022/06/26 10:29:20;;;;;;;6.23;5.80;;;;;;;29.79;36.48;100331.50;5100659;28;20792;-63
2022/06/26 10:31:48;;;;;;;6.47;5.97;;;;;;;28.47;39.27;100316.25;5099969;27;20502;-63
2022/06/26 10:34:17;;;;;;;7.23;6.70;;;;;;;28.64;40.31;100318.94;5099419;28;20462;-63
2022/06/26 10:36:56;;;;;;;6.20;5.80;;;;;;;30.71;35.96;100320.03;5099951;27;20471;-63
2022/06/26 10:39:23;;;;;;;7.00;6.30;;;;;;;29.55;36.89;100320.88;5100441;28;20775;-63
2022/06/26 10:44:44;;;;;;;6.37;5.80;;;;;;;31.27;33.72;100319.28;5100301;28;20503;-64
2022/06/26 10:47:15;;;;;;;6.57;5.97;;;;;;;30.50;35.97;100325.53;5098865;28;20474;-63
2022/06/26 10:49:49;;;;;;;6.90;6.40;;;;;;;30.01;35.69;100323.06;5099614;28;20772;-63
2022/06/26 10:52:27;;;;;;;6.03;5.53;;;;;;;30.68;34.94;100331.63;5099335;28;20492;-64
2022/06/26 10:54:54;;;;;;;5.73;5.30;;;;;;;30.73;35.59;100328.88;5099942;28;20450;-64
2022/06/26 10:57:33;;;;;;;4.60;4.30;;;;;;;31.90;33.75;100335.50;5098186;28;20475;-63
2022/06/26 11:00:02;;;;;;;5.70;5.13;;;;;;;31.76;31.86;100321.44;5100697;28;21055;-64
2022/06/26 11:02:36;;;;;;;4.63;4.33;;;;;;;31.00;33.78;100333.34;5099945;28;20478;-63
2022/06/26 11:05:04;;;;;;;4.67;4.27;;;;;;;31.20;32.44;100318.72;5098942;28;20457;-64
2022/06/26 11:07:44;;;;;;;5.20;4.70;;;;;;;30.20;35.08;100321.50;5100035;28;20481;-64
2022/06/26 11:10:15;;;;;;;5.53;5.03;;;;;;;29.53;35.61;100316.69;5099058;28;20443;-63
2022/06/26 11:12:43;;;;;;;5.63;5.23;;;;;;;29.31;37.45;100322.34;5099059;28;20447;-63
2022/06/26 11:15:23;;;;;;;5.53;5.13;;;;;;;29.83;36.99;100313.34;5099025;28;20500;-64
2022/06/26 11:17:59;;;;;;;5.33;4.93;;;;;;;29.48;36.73;100312.00;5099478;28;20480;-63
2022/06/26 11:23:16;;;;;;;5.50;5.10;;;;;;;30.52;34.99;100297.63;5099193;28;20434;-64
2022/06/26 11:25:45;;;;;;;5.63;5.23;;;;;;;30.64;34.75;100305.66;5097986;28;20506;-65
2022/06/26 11:28:13;;;;;;;5.67;5.10;;;;;;;30.12;36.29;100307.41;5099510;28;20435;-64
2022/06/26 11:30:42;;;;;;;5.77;5.23;;;;;;;29.43;36.72;100310.03;5098898;28;20516;-64
2022/06/26 11:33:10;;;;;;;6.40;5.80;;;;;;;28.21;38.88;100309.63;5098955;28;20447;-64
2022/06/26 11:35:37;;;;;;;5.77;5.37;;;;;;;29.05;37.78;100306.41;5098648;28;20470;-64
2022/06/26 11:38:15;;;;;;;6.97;6.47;;;;;;;28.61;38.84;100306.56;5099858;28;20439;-63
2022/06/26 11:40:43;;;;;;;8.90;6.57;;;;;;;28.95;38.03;100319.25;5097674;28;21003;-64
2022/06/26 11:43:10;;;;;;;6.23;5.73;;;;;;;29.93;36.60;100310.66;5099478;28;20443;-63